EGTE METAR and TAF | Updated Today

EGTE METAR

Exeter International Airport

Observation time: 5:33 hr. ago

EGTE 070250Z 17003KT 9999 FEW040 02/01 Q1009

Need help? Read our tutorial on how to read METARs or read the parsed version below.

Exeter International Airport (EGTE) METAR

  • Weather conditions on Tue, 07 Dec 2021 02:50:00 +0000 (5:33 hr. ago):
  • Present conditions: Dry
  • Clouds: A few at 1219 meters
  • Visibility: Greater than 10 km
  • Wind: 170 degrees at 3 knots
  • Temperature: 2 celsius
  • Dew point: 1 celsius
  • Pressure: 1009 millibars
  • Remarks: None


Useful to know...

EGTE TAF

Exeter International Airport

TAF EGTE 062303Z 0700/0703 13006KT 9999 FEW045
Observation time: 9:20 hr. ago
Need help? Read our tutorial on how to read TAFs or read the parsed version below.

Parsed version of TAF for Exeter International Airport (EGTE)

  • From 07 December at 00:00 UTC, to day 07 of the month at 03:00 UTC
  • Clouds: A few at 1372 meters
  • Visibility: Greater than 10 km
  • Wind: 130 degrees at 6